Time;durP1;ratioP1;P1;durP2;ratioP2;P2;SDS_P1;SDS_P2;PMS_P1;PMS_P2;Temp;Humidity;BMP_temperature;BMP_pressure;BME280_temperature;BME280_humidity;BME280_pressure;Samples;Min_cycle;Max_cycle;Signal;HPM_P1;HPM_P2
2024/03/23 00:01:44;;;;;;;24.80;11.68;;;;;;;7.94;67.07;100060.55;1778821;81;21076;-66
2024/03/23 00:04:13;;;;;;;17.52;10.88;;;;;;;7.92;67.08;100058.02;1778838;81;20975;-67
2024/03/23 00:06:42;;;;;;;20.80;11.05;;;;;;;7.90;67.22;100051.91;1778665;81;21463;-66
2024/03/23 00:09:10;;;;;;;21.00;11.18;;;;;;;7.87;67.31;100048.70;1778835;81;21003;-66
2024/03/23 00:11:40;;;;;;;18.35;11.08;;;;;;;7.85;67.35;100052.14;1778718;81;20971;-67
2024/03/23 00:14:09;;;;;;;20.25;10.72;;;;;;;7.84;67.66;100050.45;1778680;81;20983;-67
2024/03/23 00:16:37;;;;;;;21.17;10.58;;;;;;;7.80;67.77;100043.64;1778845;81;20987;-67
2024/03/23 00:19:06;;;;;;;17.42;10.45;;;;;;;7.78;67.95;100042.98;1778654;81;21031;-67
2024/03/23 00:21:38;;;;;;;19.40;11.05;;;;;;;7.75;68.18;100041.48;1781030;80;21022;-67
2024/03/23 00:24:27;;;;;;;18.30;10.03;;;;;;;7.75;68.30;100040.64;1778756;81;20983;-67
2024/03/23 00:26:56;;;;;;;15.35;9.68;;;;;;;7.74;68.38;100041.16;1716756;83;21244;-67
2024/03/23 00:29:25;;;;;;;20.25;10.50;;;;;;;7.70;68.50;100038.48;1716708;83;21096;-68
2024/03/23 00:31:55;;;;;;;18.75;10.88;;;;;;;7.68;68.66;100032.37;1716074;83;21065;-65
2024/03/23 00:34:23;;;;;;;19.00;11.25;;;;;;;7.67;69.08;100027.10;1716624;83;21009;-67
2024/03/23 00:36:52;;;;;;;18.52;11.08;;;;;;;7.66;69.15;100026.25;1716813;83;21048;-66
2024/03/23 00:39:21;;;;;;;20.95;11.33;;;;;;;7.65;69.28;100021.84;1716759;83;21084;-68
2024/03/23 00:41:50;;;;;;;18.27;9.98;;;;;;;7.65;69.38;100020.47;1710364;83;21013;-67
2024/03/23 00:44:20;;;;;;;19.95;10.63;;;;;;;7.63;69.41;100027.99;1716870;83;21014;-66
2024/03/23 00:46:48;;;;;;;21.85;10.65;;;;;;;7.61;69.55;100022.73;1716029;83;21406;-66
2024/03/23 00:49:17;;;;;;;17.37;10.63;;;;;;;7.61;69.63;100020.00;1716559;83;21016;-67
2024/03/23 00:51:45;;;;;;;18.00;10.50;;;;;;;7.61;69.78;100023.24;1717027;83;21089;-67
2024/03/23 00:54:13;;;;;;;19.55;11.15;;;;;;;7.63;69.90;100019.81;1716781;83;20989;-66
2024/03/23 00:56:42;;;;;;;20.00;11.30;;;;;;;7.63;69.87;100018.45;1716782;83;21016;-66
2024/03/23 00:59:10;;;;;;;19.17;11.03;;;;;;;7.63;69.78;100010.27;1715018;83;21034;-67
2024/03/23 01:01:39;;;;;;;21.20;10.93;;;;;;;7.62;69.96;100008.58;1715026;84;21009;-67
2024/03/23 01:04:07;;;;;;;20.88;11.20;;;;;;;7.62;69.95;100005.85;1716375;83;21080;-67
2024/03/23 01:06:36;;;;;;;16.87;10.63;;;;;;;7.61;70.13;99997.34;1716936;83;21021;-66
2024/03/23 01:09:04;;;;;;;19.90;10.72;;;;;;;7.61;70.22;100000.92;1716884;83;21041;-66
2024/03/23 01:11:33;;;;;;;18.70;10.88;;;;;;;7.60;70.30;99996.50;1716801;83;21044;-65
2024/03/23 01:14:01;;;;;;;18.42;9.93;;;;;;;7.61;70.31;99995.98;1716990;83;21434;-67
2024/03/23 01:16:30;;;;;;;20.32;10.63;;;;;;;7.60;70.37;99994.29;1694899;83;21116;-67
2024/03/23 01:18:59;;;;;;;15.48;10.08;;;;;;;7.61;70.37;99993.25;1716685;83;21052;-67
2024/03/23 01:21:28;;;;;;;18.70;10.13;;;;;;;7.59;70.47;99993.44;1716820;83;21037;-66
2024/03/23 01:23:56;;;;;;;19.27;10.03;;;;;;;7.60;70.68;99992.41;1702386;83;21049;-67
2024/03/23 01:26:25;;;;;;;15.93;10.28;;;;;;;7.61;70.72;99993.25;1716688;83;21010;-67
2024/03/23 01:28:54;;;;;;;18.50;10.68;;;;;;;7.60;70.77;99995.14;1694568;83;21073;-68
2024/03/23 01:31:22;;;;;;;17.23;9.90;;;;;;;7.59;70.93;99981.17;1716803;83;21045;-68
2024/03/23 01:33:51;;;;;;;18.07;10.43;;;;;;;7.59;70.93;99987.14;1716937;83;21037;-66
2024/03/23 01:36:19;;;;;;;22.35;10.72;;;;;;;7.58;70.95;99984.09;1716902;83;20966;-67
2024/03/23 01:38:49;;;;;;;16.93;9.95;;;;;;;7.57;71.03;99982.39;1716874;83;21045;-65
2024/03/23 01:41:17;;;;;;;18.20;10.50;;;;;;;7.56;71.26;99976.61;1716602;83;21026;-67
2024/03/23 01:43:46;;;;;;;17.62;10.32;;;;;;;7.53;71.32;99979.72;1716701;83;21450;-66
2024/03/23 01:46:14;;;;;;;20.00;11.80;;;;;;;7.50;71.53;99976.85;1694732;83;21528;-66
2024/03/23 01:48:43;;;;;;;16.20;10.25;;;;;;;7.50;71.68;99970.55;1716697;83;21010;-66
2024/03/23 01:51:11;;;;;;;21.02;11.25;;;;;;;7.48;71.87;99976.71;1716800;83;21013;-66
2024/03/23 01:53:40;;;;;;;19.98;10.85;;;;;;;7.49;72.00;99972.95;1716879;83;21084;-68
2024/03/23 01:56:09;;;;;;;19.65;9.95;;;;;;;7.49;72.17;99974.31;1716927;83;21334;-66
2024/03/23 01:58:37;;;;;;;17.42;11.03;;;;;;;7.49;72.26;99975.68;1716898;83;21053;-67
2024/03/23 02:01:06;;;;;;;17.67;9.70;;;;;;;7.46;72.27;99975.54;1694727;83;21468;-67
2024/03/23 02:03:47;;;;;;;17.75;10.68;;;;;;;7.46;72.29;99966.52;1778947;80;21019;-66
2024/03/23 02:06:16;;;;;;;17.90;9.93;;;;;;;7.44;72.39;99969.95;1778589;81;21019;-66
2024/03/23 02:08:45;;;;;;;18.57;10.50;;;;;;;7.41;72.59;99960.78;1779038;81;21023;-66
2024/03/23 02:11:13;;;;;;;18.45;10.30;;;;;;;7.41;72.86;99963.51;1778902;81;21019;-66
2024/03/23 02:13:42;;;;;;;18.75;10.68;;;;;;;7.39;73.03;99959.61;1789754;80;21026;-66
2024/03/23 02:16:10;;;;;;;18.32;10.32;;;;;;;7.37;73.09;99952.66;1778693;81;21063;-66
2024/03/23 02:18:39;;;;;;;19.07;10.72;;;;;;;7.35;73.18;99954.72;1789381;80;21053;-67
2024/03/23 02:21:08;;;;;;;20.68;10.05;;;;;;;7.33;73.32;99952.19;1778679;81;21079;-67
2024/03/23 02:23:36;;;;;;;25.08;11.20;;;;;;;7.31;73.48;99946.08;1789556;80;21051;-68
2024/03/23 02:26:05;;;;;;;17.92;10.28;;;;;;;7.30;73.58;99943.02;1789384;80;21042;-67
2024/03/23 02:28:34;;;;;;;18.27;10.58;;;;;;;7.28;73.74;99941.84;1778902;81;21012;-66
2024/03/23 02:31:04;;;;;;;16.87;10.32;;;;;;;7.25;73.86;99942.22;1779031;81;21050;-68
2024/03/23 02:33:34;;;;;;;16.95;10.32;;;;;;;7.22;74.13;99939.87;1789544;80;21089;-67
2024/03/23 02:36:03;;;;;;;18.75;10.35;;;;;;;7.21;74.37;99940.91;1778913;81;20984;-67
2024/03/23 02:38:32;;;;;;;17.52;10.88;;;;;;;7.19;74.55;99935.31;1789580;80;21043;-67
2024/03/23 02:41:04;;;;;;;18.02;11.12;;;;;;;7.18;74.83;99926.30;1778945;81;21018;-67
2024/03/23 02:43:33;;;;;;;19.60;11.25;;;;;;;7.16;75.01;99927.00;1789594;79;21026;-67
2024/03/23 02:46:01;;;;;;;19.73;11.63;;;;;;;7.14;75.17;99928.19;1789413;80;21082;-67
2024/03/23 02:48:30;;;;;;;19.02;10.80;;;;;;;7.15;75.29;99921.70;1778905;81;21304;-67
2024/03/23 02:50:58;;;;;;;19.40;10.98;;;;;;;7.16;75.37;99919.34;1778689;81;21038;-66
2024/03/23 02:53:27;;;;;;;18.50;10.03;;;;;;;7.14;75.46;99916.78;1789420;80;21043;-67
2024/03/23 02:55:59;;;;;;;17.75;10.35;;;;;;;7.16;75.62;99922.91;1757219;80;21533;-66
2024/03/23 02:58:27;;;;;;;18.52;10.53;;;;;;;7.13;75.73;99917.81;1789346;80;21023;-65
2024/03/23 03:00:56;;;;;;;17.87;10.50;;;;;;;7.12;75.90;99913.39;1778675;81;21051;-65
2024/03/23 03:03:25;;;;;;;24.30;10.98;;;;;;;7.12;76.06;99905.22;1778689;81;21020;-66
2024/03/23 03:05:56;;;;;;;18.62;11.28;;;;;;;7.11;76.15;99903.53;1757394;80;21058;-66
2024/03/23 03:08:25;;;;;;;16.90;9.98;;;;;;;7.11;76.21;99906.25;1789414;80;21654;-66
2024/03/23 03:10:53;;;;;;;15.53;9.88;;;;;;;7.11;76.36;99897.23;1789415;80;21023;-66
2024/03/23 03:13:22;;;;;;;18.95;11.05;;;;;;;7.10;76.47;99892.30;1789367;80;21019;-67
2024/03/23 03:15:50;;;;;;;17.48;10.38;;;;;;;7.11;76.54;99889.91;1778941;81;21486;-67
2024/03/23 03:18:19;;;;;;;18.17;9.68;;;;;;;7.11;76.74;99887.19;1778616;81;21031;-67
2024/03/23 03:20:48;;;;;;;18.45;10.35;;;;;;;7.12;76.89;99892.96;1778756;81;21066;-67
2024/03/23 03:23:17;;;;;;;18.12;10.70;;;;;;;7.11;77.02;99889.06;1789360;80;21023;-67
2024/03/23 03:25:46;;;;;;;20.10;10.65;;;;;;;7.10;77.08;99889.58;1789554;80;20987;-66
2024/03/23 03:28:15;;;;;;;18.25;10.53;;;;;;;7.07;77.20;99881.78;1778951;81;21006;-65
2024/03/23 03:30:43;;;;;;;19.23;10.58;;;;;;;7.07;77.34;99880.42;1789383;80;21023;-66
2024/03/23 03:33:12;;;;;;;14.85;9.63;;;;;;;7.09;77.38;99880.23;1789743;80;21015;-66
2024/03/23 03:35:40;;;;;;;19.98;9.75;;;;;;;7.08;77.45;99878.03;1789543;80;21093;-66
2024/03/23 03:38:09;;;;;;;17.65;10.30;;;;;;;7.06;77.54;99877.37;1789566;80;21007;-67
2024/03/23 03:40:38;;;;;;;19.57;10.40;;;;;;;7.07;77.70;99867.31;1778826;81;21031;-66
2024/03/23 03:43:07;;;;;;;18.20;10.00;;;;;;;7.07;77.82;99870.89;1789655;80;21466;-66
2024/03/23 03:45:35;;;;;;;15.98;10.63;;;;;;;7.07;77.89;99877.70;1789492;80;21018;-65
2024/03/23 03:48:05;;;;;;;17.90;11.12;;;;;;;7.07;77.91;99874.97;1754641;81;21074;-68
2024/03/23 03:50:34;;;;;;;20.37;11.38;;;;;;;7.07;78.03;99870.89;1778616;81;21007;-66
2024/03/23 03:53:03;;;;;;;16.70;10.30;;;;;;;7.07;78.16;99875.48;1789640;80;21054;-66
2024/03/23 03:55:31;;;;;;;18.87;10.78;;;;;;;7.04;78.14;99873.98;1778599;81;21514;-66
2024/03/23 03:58:00;;;;;;;18.30;10.90;;;;;;;7.02;78.29;99859.71;1789631;80;21034;-65
2024/03/23 04:00:28;;;;;;;19.75;10.35;;;;;;;7.03;78.44;99856.47;1778809;81;21091;-67
2024/03/23 04:02:57;;;;;;;19.60;10.88;;;;;;;7.04;78.55;99867.17;1778800;81;21039;-67
2024/03/23 04:05:25;;;;;;;16.00;10.45;;;;;;;7.05;78.65;99861.22;1778623;81;21044;-67
2024/03/23 04:07:54;;;;;;;18.32;10.98;;;;;;;7.07;78.75;99863.23;1789369;80;21501;-66
2024/03/23 04:10:23;;;;;;;19.60;10.90;;;;;;;7.07;78.73;99857.78;1789375;80;21050;-66
2024/03/23 04:12:51;;;;;;;18.67;10.93;;;;;;;7.07;78.84;99858.63;1778824;81;21019;-67
2024/03/23 04:15:20;;;;;;;19.90;11.30;;;;;;;7.07;78.99;99846.38;1789578;80;21039;-67
2024/03/23 04:17:49;;;;;;;17.05;10.72;;;;;;;7.06;79.09;99848.77;1789391;80;21042;-67
2024/03/23 04:20:17;;;;;;;20.20;11.88;;;;;;;7.06;79.20;99850.13;1789448;80;21054;-66
2024/03/23 04:22:46;;;;;;;19.15;11.63;;;;;;;7.06;79.28;99846.05;1789378;80;21462;-65
2024/03/23 04:25:15;;;;;;;16.77;10.85;;;;;;;7.06;79.40;99857.45;1778764;81;21034;-67
2024/03/23 04:27:43;;;;;;;20.08;11.10;;;;;;;7.05;79.56;99851.16;1789357;80;21060;-66
2024/03/23 04:30:13;;;;;;;19.82;11.18;;;;;;;7.07;79.74;99850.97;1732406;80;21078;-66
2024/03/23 04:32:41;;;;;;;18.77;11.25;;;;;;;7.08;79.87;99845.34;1789506;80;21561;-67
2024/03/23 04:35:10;;;;;;;18.07;11.55;;;;;;;7.11;80.05;99847.69;1778684;81;21067;-66
2024/03/23 04:37:40;;;;;;;19.27;11.95;;;;;;;7.13;80.10;99844.25;1778748;81;21028;-66
2024/03/23 04:40:11;;;;;;;19.77;12.33;;;;;;;7.15;80.14;99844.94;1789479;80;21451;-66
2024/03/23 04:42:39;;;;;;;21.62;11.28;;;;;;;7.18;80.20;99836.39;1789487;80;21006;-66
2024/03/23 04:45:08;;;;;;;18.67;11.85;;;;;;;7.21;80.24;99837.89;1789478;80;21054;-67
2024/03/23 04:47:39;;;;;;;22.58;13.32;;;;;;;7.21;80.25;99836.02;1789432;80;21035;-67
2024/03/23 04:50:10;;;;;;;21.07;11.65;;;;;;;7.24;80.36;99832.06;1789487;80;20998;-66
2024/03/23 04:52:39;;;;;;;19.85;11.65;;;;;;;7.28;80.51;99831.49;1789552;80;21470;-65
2024/03/23 04:55:11;;;;;;;20.52;12.00;;;;;;;7.30;80.48;99829.42;1757834;80;21065;-68
2024/03/23 04:57:40;;;;;;;21.90;11.85;;;;;;;7.33;80.62;99817.81;1789535;79;21134;-66
2024/03/23 05:00:17;;;;;;;22.52;12.65;;;;;;;7.37;80.81;99824.05;1778676;81;21501;-67
2024/03/23 05:02:41;;;;;;;22.85;12.88;;;;;;;7.42;80.91;99822.11;1778371;80;21055;-66
2024/03/23 05:05:10;;;;;;;20.02;12.40;;;;;;;7.46;81.01;99820.17;1778685;81;21035;-66
2024/03/23 05:07:38;;;;;;;18.65;12.07;;;;;;;7.49;81.00;99818.42;1778736;81;20999;-65
2024/03/23 05:10:10;;;;;;;21.57;12.45;;;;;;;7.53;81.07;99824.34;1778906;81;21423;-67
2024/03/23 05:12:40;;;;;;;25.02;13.72;;;;;;;7.54;81.07;99824.66;1778808;81;21027;-67
2024/03/23 05:15:09;;;;;;;25.48;13.93;;;;;;;7.55;81.13;99822.27;1778915;81;21059;-66
2024/03/23 05:17:38;;;;;;;23.15;12.90;;;;;;;7.59;81.20;99829.02;1778714;81;21011;-66
2024/03/23 05:20:09;;;;;;;25.72;13.95;;;;;;;7.61;81.23;99818.25;1789393;80;21047;-67
2024/03/23 05:22:38;;;;;;;24.25;13.08;;;;;;;7.64;81.21;99825.20;1778898;81;21003;-66
2024/03/23 05:25:09;;;;;;;21.25;12.60;;;;;;;7.68;81.28;99822.93;1778842;81;21038;-66
2024/03/23 05:27:38;;;;;;;21.50;12.90;;;;;;;7.70;81.31;99816.24;1778609;81;21063;-67
2024/03/23 05:30:09;;;;;;;20.62;12.90;;;;;;;7.74;81.23;99809.89;1757321;80;21070;-66
2024/03/23 05:32:40;;;;;;;21.75;13.30;;;;;;;7.74;81.13;99806.64;1789474;80;21045;-67
2024/03/23 05:35:09;;;;;;;20.45;12.20;;;;;;;7.75;81.23;99808.84;1789717;80;20999;-66
2024/03/23 05:37:37;;;;;;;24.05;12.05;;;;;;;7.77;81.26;99812.22;1789392;80;21034;-65
2024/03/23 05:40:08;;;;;;;21.48;12.25;;;;;;;7.78;81.30;99813.39;1789423;80;21066;-65
2024/03/23 05:42:36;;;;;;;21.00;12.30;;;;;;;7.79;81.32;99808.27;1789472;80;21074;-65
2024/03/23 05:45:06;;;;;;;23.62;12.20;;;;;;;7.81;81.30;99810.31;1789596;80;21003;-66
2024/03/23 05:47:35;;;;;;;23.30;12.43;;;;;;;7.83;81.31;99808.75;1778826;81;21063;-67
2024/03/23 05:50:05;;;;;;;24.12;12.60;;;;;;;7.83;81.32;99812.84;1755137;81;21463;-67
2024/03/23 05:52:33;;;;;;;20.80;12.25;;;;;;;7.86;81.49;99814.66;1778699;81;21455;-67
2024/03/23 05:55:02;;;;;;;21.52;12.53;;;;;;;7.90;81.46;99816.48;1789453;80;21451;-66
2024/03/23 05:57:31;;;;;;;23.87;12.90;;;;;;;7.93;81.48;99814.72;1778790;81;21031;-66
2024/03/23 05:59:59;;;;;;;23.75;13.15;;;;;;;7.97;81.49;99811.93;1789441;80;21043;-66
2024/03/23 06:02:27;;;;;;;21.73;12.50;;;;;;;8.02;81.43;99814.08;1778873;81;21059;-66
2024/03/23 06:04:56;;;;;;;30.45;17.87;;;;;;;8.04;81.20;99816.09;1778861;81;21019;-67
2024/03/23 06:07:25;;;;;;;23.70;15.28;;;;;;;8.07;81.15;99811.59;1789419;80;21038;-65
2024/03/23 06:09:54;;;;;;;28.87;15.88;;;;;;;8.08;81.13;99811.92;1778606;81;21470;-67
2024/03/23 06:12:23;;;;;;;25.85;15.08;;;;;;;8.11;81.16;99808.28;1778831;81;21051;-67
2024/03/23 06:14:52;;;;;;;25.08;15.30;;;;;;;8.15;81.07;99811.46;1778871;81;21003;-67
2024/03/23 06:17:20;;;;;;;26.33;16.37;;;;;;;8.20;81.03;99811.72;1789421;80;21050;-70
2024/03/23 06:19:49;;;;;;;23.15;14.03;;;;;;;8.25;81.02;99816.06;1778734;81;21070;-67
2024/03/23 06:22:17;;;;;;;22.30;13.90;;;;;;;8.29;80.92;99811.90;1789594;80;21019;-66
2024/03/23 06:24:46;;;;;;;22.80;15.08;;;;;;;8.31;80.77;99811.70;1757152;80;21074;-67
2024/03/23 06:27:14;;;;;;;28.07;17.48;;;;;;;8.31;80.64;99812.55;1778673;81;21067;-68
2024/03/23 06:29:43;;;;;;;22.13;13.40;;;;;;;8.35;80.56;99802.11;1757374;80;21014;-67
2024/03/23 06:32:11;;;;;;;21.00;12.45;;;;;;;8.35;80.52;99808.93;1789458;80;21086;-67
2024/03/23 06:34:42;;;;;;;20.60;12.15;;;;;;;8.37;80.50;99804.97;1778818;81;21029;-67
2024/03/23 06:37:11;;;;;;;18.87;12.10;;;;;;;8.39;80.44;99812.44;1778783;81;21047;-67
2024/03/23 06:39:40;;;;;;;19.30;12.18;;;;;;;8.41;80.43;99816.33;1778546;81;21047;-65
2024/03/23 06:42:09;;;;;;;17.92;11.35;;;;;;;8.45;80.45;99816.25;1779053;81;20972;-67
2024/03/23 06:44:37;;;;;;;20.00;11.95;;;;;;;8.48;80.41;99818.63;1789785;80;21074;-66
2024/03/23 06:47:06;;;;;;;17.70;11.22;;;;;;;8.52;80.39;99817.18;1778823;81;21027;-65
2024/03/23 06:49:35;;;;;;;18.40;10.80;;;;;;;8.53;80.25;99814.25;1789285;80;21058;-67
2024/03/23 06:52:04;;;;;;;16.30;10.25;;;;;;;8.56;80.12;99811.13;1778838;81;21458;-67
2024/03/23 06:54:33;;;;;;;20.45;11.63;;;;;;;8.57;80.05;99810.59;1789394;80;20999;-67
2024/03/23 06:57:01;;;;;;;17.87;10.75;;;;;;;8.60;80.12;99814.82;1789674;80;21054;-66
2024/03/23 06:59:30;;;;;;;19.67;10.95;;;;;;;8.64;80.06;99814.22;1778679;80;21535;-68
2024/03/23 07:01:58;;;;;;;19.12;11.18;;;;;;;8.65;79.87;99806.35;1778689;81;21050;-66
2024/03/23 07:04:27;;;;;;;22.05;10.78;;;;;;;8.69;79.82;99801.33;1732681;80;21027;-67
2024/03/23 07:06:55;;;;;;;17.75;10.88;;;;;;;8.70;79.77;99805.75;1778854;81;21083;-64
2024/03/23 07:09:26;;;;;;;15.20;10.32;;;;;;;8.73;79.69;99798.00;1789751;80;21007;-68
2024/03/23 07:11:56;;;;;;;21.02;11.38;;;;;;;8.76;79.55;99803.59;1778650;81;21034;-67
2024/03/23 07:14:24;;;;;;;18.82;11.20;;;;;;;8.79;79.50;99799.93;1789428;80;21026;-68
2024/03/23 07:16:53;;;;;;;20.45;11.60;;;;;;;8.83;79.45;99793.54;1788620;80;21470;-66
2024/03/23 07:19:21;;;;;;;21.27;10.85;;;;;;;8.87;79.22;99792.94;1789420;80;21485;-68
2024/03/23 07:21:50;;;;;;;21.62;11.12;;;;;;;8.87;79.11;99787.47;1781788;80;20996;-67
2024/03/23 07:24:18;;;;;;;21.65;11.05;;;;;;;8.90;79.06;99784.86;1789672;80;21035;-67
2024/03/23 07:26:47;;;;;;;20.35;10.50;;;;;;;8.93;79.17;99784.98;1778847;81;20991;-67
2024/03/23 07:29:17;;;;;;;16.50;11.12;;;;;;;8.97;79.02;99781.64;1789355;80;21075;-67
2024/03/23 07:31:45;;;;;;;20.32;11.25;;;;;;;9.01;79.00;99786.17;1757284;80;21105;-67
2024/03/23 07:34:14;;;;;;;18.02;11.55;;;;;;;9.04;78.79;99785.25;1778805;81;21003;-67
2024/03/23 07:36:42;;;;;;;20.12;11.08;;;;;;;9.07;78.65;99788.09;1778865;81;21028;-67
2024/03/23 07:39:11;;;;;;;20.37;11.15;;;;;;;9.11;78.55;99781.21;1789327;80;21700;-66
2024/03/23 07:41:41;;;;;;;20.45;11.48;;;;;;;9.14;78.47;99783.53;1778561;81;21044;-66
2024/03/23 07:44:09;;;;;;;17.60;11.78;;;;;;;9.18;78.33;99781.56;1730450;81;21051;-67
2024/03/23 07:46:37;;;;;;;21.23;11.75;;;;;;;9.20;78.26;99776.73;1757411;80;21038;-66
2024/03/23 07:49:06;;;;;;;19.73;11.50;;;;;;;9.24;78.16;99774.95;1778822;81;21058;-67
2024/03/23 07:51:34;;;;;;;23.77;12.05;;;;;;;9.26;77.92;99775.59;1789349;80;21042;-68
2024/03/23 07:54:03;;;;;;;22.15;12.80;;;;;;;9.30;77.96;99772.77;1757102;80;21140;-67
2024/03/23 07:56:32;;;;;;;25.60;13.68;;;;;;;9.36;77.80;99771.42;1778805;81;21600;-67
2024/03/23 07:59:00;;;;;;;22.52;13.78;;;;;;;9.43;77.72;99775.02;1756977;80;21439;-68
2024/03/23 08:01:29;;;;;;;27.35;13.08;;;;;;;9.52;77.64;99773.78;1757287;80;21050;-67
2024/03/23 08:03:58;;;;;;;24.43;13.62;;;;;;;9.63;77.26;99766.87;1757333;80;21035;-66
2024/03/23 08:06:26;;;;;;;23.70;14.00;;;;;;;9.74;77.02;99767.63;1789428;80;21019;-67
2024/03/23 08:09:00;;;;;;;24.50;13.10;;;;;;;9.85;76.45;99769.78;1778559;81;21059;-66
2024/03/23 08:11:29;;;;;;;26.23;14.70;;;;;;;9.94;76.05;99772.31;1778701;81;20991;-68
2024/03/23 08:13:57;;;;;;;20.92;12.43;;;;;;;10.01;75.69;99776.73;1757426;80;21023;-66
2024/03/23 08:16:26;;;;;;;21.00;11.60;;;;;;;10.08;75.30;99768.53;1789413;80;21035;-67
2024/03/23 08:18:57;;;;;;;25.00;12.82;;;;;;;10.13;74.84;99764.64;1757244;80;20999;-68
2024/03/23 08:21:27;;;;;;;20.45;11.93;;;;;;;10.17;74.70;99761.27;1757842;80;21560;-68
2024/03/23 08:23:58;;;;;;;19.15;11.73;;;;;;;10.20;74.38;99764.14;1778628;81;21078;-67
2024/03/23 08:26:27;;;;;;;20.37;12.07;;;;;;;10.22;74.15;99757.09;1789633;80;21050;-67
2024/03/23 08:28:55;;;;;;;22.45;13.03;;;;;;;10.22;74.11;99751.08;1789450;80;21018;-67
2024/03/23 08:31:24;;;;;;;19.82;11.78;;;;;;;10.24;74.17;99752.23;1778465;81;21062;-67
2024/03/23 08:33:52;;;;;;;20.60;11.70;;;;;;;10.28;74.22;99752.97;1757315;80;21015;-67
2024/03/23 08:36:21;;;;;;;22.50;12.25;;;;;;;10.28;74.00;99746.66;1789544;80;21074;-67
2024/03/23 08:38:53;;;;;;;21.37;11.83;;;;;;;10.26;73.95;99749.61;1789249;80;21034;-66
2024/03/23 08:41:20;;;;;;;19.60;12.18;;;;;;;10.25;73.91;99740.23;1789282;80;21003;-68
2024/03/23 08:43:49;;;;;;;20.70;11.53;;;;;;;10.25;74.07;99738.87;1789558;80;21443;-68
2024/03/23 08:46:18;;;;;;;20.97;11.22;;;;;;;10.26;74.30;99731.81;1778514;81;21529;-67
2024/03/23 08:48:48;;;;;;;20.30;11.30;;;;;;;10.31;74.31;99726.54;1778591;81;21505;-67
2024/03/23 08:51:17;;;;;;;18.92;11.43;;;;;;;10.36;74.35;99727.27;1778496;81;21027;-67
2024/03/23 08:53:45;;;;;;;19.30;11.65;;;;;;;10.43;74.34;99722.12;1789489;80;21026;-69
2024/03/23 08:56:14;;;;;;;17.75;11.30;;;;;;;10.53;74.14;99724.42;1747867;81;21032;-68
2024/03/23 08:58:43;;;;;;;19.25;12.13;;;;;;;10.59;73.76;99722.20;1749952;79;21634;-80
2024/03/23 09:01:13;;;;;;;24.25;12.75;;;;;;;10.65;73.57;99717.23;1714506;81;21023;-77
2024/03/23 09:03:42;;;;;;;19.30;11.57;;;;;;;10.72;73.81;99708.99;1725575;82;21111;-77
2024/03/23 09:06:12;;;;;;;22.45;11.93;;;;;;;10.79;73.54;99709.81;1696862;83;21078;-78
2024/03/23 09:08:41;;;;;;;19.27;11.55;;;;;;;10.83;73.10;99702.84;1712374;83;21097;-76
2024/03/23 09:11:12;;;;;;;28.60;12.85;;;;;;;10.88;72.84;99704.93;1724271;81;21509;-77
2024/03/23 09:13:45;;;;;;;19.75;12.30;;;;;;;10.92;72.90;99698.80;1724161;82;21079;-80
2024/03/23 09:16:11;;;;;;;20.35;12.28;;;;;;;10.98;72.58;99705.31;1692400;82;21095;-79
2024/03/23 09:18:45;;;;;;;21.90;12.82;;;;;;;11.00;72.69;99694.44;1713000;82;21087;-77
2024/03/23 09:21:17;;;;;;;21.17;12.30;;;;;;;11.04;72.70;99695.69;1717806;82;21083;-79
2024/03/23 09:23:45;;;;;;;20.55;12.30;;;;;;;11.06;72.32;99689.48;1722298;82;21027;-77
2024/03/23 09:26:14;;;;;;;24.75;12.50;;;;;;;11.09;72.22;99687.68;1724359;82;21102;-81
2024/03/23 09:28:43;;;;;;;20.43;12.43;;;;;;;11.13;72.20;99681.76;1724305;83;21137;-79
2024/03/23 09:31:14;;;;;;;21.60;12.70;;;;;;;11.15;72.02;99678.27;1724498;83;21104;-80
2024/03/23 09:33:43;;;;;;;20.80;12.18;;;;;;;11.17;71.82;99676.98;1724559;83;21038;-76
2024/03/23 09:36:12;;;;;;;19.32;12.23;;;;;;;11.20;71.90;99678.45;1724666;83;21022;-78
2024/03/23 09:38:41;;;;;;;20.40;12.58;;;;;;;11.25;71.85;99676.73;1724439;83;21038;-79
2024/03/23 09:41:11;;;;;;;20.55;12.53;;;;;;;11.31;71.64;99671.73;1715350;82;21510;-78
2024/03/23 09:43:40;;;;;;;21.82;13.13;;;;;;;11.35;71.66;99665.28;1693147;84;21080;-79
2024/03/23 09:46:09;;;;;;;21.12;11.80;;;;;;;11.43;71.71;99665.02;1713003;83;21479;-75
2024/03/23 09:48:37;;;;;;;24.55;13.48;;;;;;;11.51;71.60;99658.42;1712931;82;21083;-79
2024/03/23 09:51:08;;;;;;;22.93;13.13;;;;;;;11.58;71.02;99657.31;1713185;82;21044;-81
2024/03/23 09:53:38;;;;;;;21.50;11.78;;;;;;;11.65;70.92;99653.14;1693224;82;21459;-77
2024/03/23 09:56:08;;;;;;;19.62;11.65;;;;;;;11.70;70.70;99650.07;1712870;82;21031;-81
2024/03/23 09:58:43;;;;;;;21.70;12.50;;;;;;;11.76;70.39;99648.33;1669820;84;21087;-77
2024/03/23 10:01:17;;;;;;;20.65;12.40;;;;;;;11.82;69.75;99651.59;1712732;82;21023;-78
2024/03/23 10:03:47;;;;;;;22.35;13.20;;;;;;;11.85;69.46;99648.39;1712900;82;21083;-79
2024/03/23 10:06:15;;;;;;;23.25;12.90;;;;;;;11.90;69.47;99642.23;1713107;82;21059;-76
2024/03/23 10:08:45;;;;;;;22.62;12.47;;;;;;;11.95;69.33;99638.28;1670411;84;21135;-79
2024/03/23 10:11:15;;;;;;;19.95;12.60;;;;;;;12.01;69.36;99640.96;1712799;82;21087;-79
2024/03/23 10:13:46;;;;;;;24.77;12.60;;;;;;;12.08;68.78;99636.77;1714548;82;21137;-78
2024/03/23 10:16:23;;;;;;;22.27;13.55;;;;;;;12.13;68.58;99636.94;1724357;82;21501;-80
2024/03/23 10:18:52;;;;;;;20.43;12.43;;;;;;;12.21;68.50;99631.69;1620703;87;21512;-78
2024/03/23 10:21:21;;;;;;;19.27;12.00;;;;;;;12.28;68.48;99638.78;1641735;86;21053;-78
2024/03/23 10:23:51;;;;;;;25.90;11.18;;;;;;;12.36;68.39;99623.41;1641710;87;21082;-79
2024/03/23 10:26:30;;;;;;;22.10;12.93;;;;;;;12.46;67.09;99620.66;1641800;87;21109;-80
2024/03/23 10:29:07;;;;;;;18.52;11.05;;;;;;;12.53;66.78;99616.77;1641709;86;21042;-79
2024/03/23 10:31:31;;;;;;;22.02;11.75;;;;;;;12.58;66.20;99605.92;1641849;86;21505;-77
2024/03/23 10:34:00;;;;;;;21.15;11.78;;;;;;;12.61;65.51;99602.72;1641782;87;21508;-77
2024/03/23 10:36:30;;;;;;;23.52;11.45;;;;;;;12.64;65.45;99601.41;1665530;83;21483;-78
2024/03/23 10:38:59;;;;;;;19.85;11.45;;;;;;;12.67;65.40;99605.08;1725452;81;21038;-77
2024/03/23 10:41:31;;;;;;;20.70;12.15;;;;;;;12.70;65.43;99597.75;1727862;81;21087;-79
2024/03/23 10:44:00;;;;;;;22.67;11.25;;;;;;;12.74;65.62;99604.45;1727939;81;21627;-77
2024/03/23 10:46:29;;;;;;;17.20;10.00;;;;;;;12.77;65.30;99593.00;1728095;82;21033;-77
2024/03/23 10:48:58;;;;;;;19.32;12.45;;;;;;;12.81;65.43;99585.97;1728001;81;21089;-78
2024/03/23 10:51:27;;;;;;;23.55;11.88;;;;;;;12.87;65.31;99585.03;1727913;83;21065;-78
2024/03/23 10:53:56;;;;;;;15.43;10.32;;;;;;;12.93;65.08;99581.89;1727868;81;21007;-79
2024/03/23 10:56:26;;;;;;;18.42;10.40;;;;;;;12.98;64.46;99584.25;1707760;83;21089;-78
2024/03/23 10:58:56;;;;;;;15.90;10.28;;;;;;;13.04;64.33;99581.13;1727912;81;21100;-78
2024/03/23 11:01:25;;;;;;;20.65;11.03;;;;;;;13.08;64.52;99572.71;1728020;81;21017;-77
2024/03/23 11:03:55;;;;;;;19.45;10.65;;;;;;;13.16;64.23;99571.00;1728118;81;21526;-78
2024/03/23 11:06:40;;;;;;;15.05;9.83;;;;;;;13.22;63.88;99562.38;1728178;81;21022;-78
2024/03/23 11:09:46;;;;;;;18.48;10.30;;;;;;;13.25;63.50;99564.66;1728085;81;21041;-76
2024/03/23 11:12:26;;;;;;;20.50;10.28;;;;;;;13.22;63.01;99555.50;1727998;83;21073;-79
2024/03/23 11:15:06;;;;;;;14.40;8.95;;;;;;;13.20;62.93;99564.52;1720080;82;21141;-77
2024/03/23 11:17:35;;;;;;;18.87;10.35;;;;;;;13.18;63.00;99558.42;1716369;83;21063;-77
2024/03/23 11:20:06;;;;;;;22.02;10.80;;;;;;;13.15;63.24;99549.23;1724233;83;21113;-76
2024/03/23 11:22:43;;;;;;;18.35;10.03;;;;;;;13.14;63.53;99546.18;1724895;81;21086;-78
2024/03/23 11:25:21;;;;;;;22.87;10.35;;;;;;;13.14;63.36;99535.18;1724553;83;21042;-77
2024/03/23 11:27:51;;;;;;;17.55;9.90;;;;;;;13.17;63.89;99536.11;1724681;83;21083;-76
2024/03/23 11:30:28;;;;;;;19.45;10.05;;;;;;;13.23;63.69;99537.92;1724209;82;21046;-77
2024/03/23 11:33:00;;;;;;;17.35;9.93;;;;;;;13.26;63.59;99537.45;1724387;83;21050;-77